createdAt,value
2019-05-01T00:00:34.235Z,26.24
2019-05-01T00:02:09.697Z,26.23
2019-05-01T00:03:33.295Z,26.22
2019-05-01T00:04:52.573Z,26.19
2019-05-01T00:05:58.849Z,25.49
2019-05-01T00:07:08.690Z,25.58
2019-05-01T00:08:16.123Z,25.66
2019-05-01T00:09:21.678Z,25.66
2019-05-01T00:10:26.794Z,25.70
2019-05-01T00:11:31.283Z,25.68
2019-05-01T00:12:35.967Z,26.06
2019-05-01T00:13:40.946Z,25.66
2019-05-01T00:14:46.003Z,25.55
2019-05-01T00:15:52.085Z,25.12
2019-05-01T00:16:57.152Z,25.31
2019-05-01T00:18:02.158Z,24.91
2019-05-01T00:19:06.895Z,25.43
2019-05-01T00:20:12.474Z,25.22
2019-05-01T00:21:17.567Z,25.53
2019-05-01T00:22:22.296Z,25.47
2019-05-01T00:23:27.631Z,25.69
2019-05-01T00:24:32.595Z,25.49
2019-05-01T00:25:37.362Z,25.63
2019-05-01T00:26:42.342Z,25.20
2019-05-01T00:27:47.052Z,25.44
2019-05-01T00:28:51.790Z,25.79
2019-05-01T00:29:56.779Z,25.74
2019-05-01T00:31:01.759Z,25.39
2019-05-01T00:32:06.772Z,25.35
2019-05-01T00:33:11.759Z,25.59
2019-05-01T00:34:16.719Z,25.29
2019-05-01T00:35:21.738Z,25.44
2019-05-01T00:36:27.028Z,25.37
2019-05-01T00:37:32.000Z,25.45
2019-05-01T00:38:37.228Z,25.27
2019-05-01T00:39:42.396Z,25.77
2019-05-01T00:40:47.436Z,25.50
2019-05-01T00:41:52.693Z,25.49
2019-05-01T00:42:58.392Z,25.39
2019-05-01T00:44:03.304Z,25.01
2019-05-01T00:45:07.852Z,25.11
2019-05-01T00:46:12.554Z,24.62
2019-05-01T00:47:17.264Z,24.82
2019-05-01T00:48:21.719Z,25.04
2019-05-01T00:49:26.676Z,25.39
2019-05-01T00:50:31.649Z,25.23
2019-05-01T00:51:36.596Z,25.30
2019-05-01T00:52:41.663Z,25.66
2019-05-01T00:53:46.645Z,25.74
2019-05-01T00:54:52.791Z,25.77
2019-05-01T00:56:04.401Z,25.70
2019-05-01T00:57:34.343Z,25.15
2019-05-01T00:58:53.526Z,25.05
2019-05-01T01:00:16.169Z,25.25
2019-05-01T01:01:39.099Z,25.45
2019-05-01T01:02:47.651Z,25.05
2019-05-01T01:03:52.930Z,25.55
2019-05-01T01:04:58.488Z,25.01
2019-05-01T01:06:04.138Z,24.77
2019-05-01T01:07:09.106Z,24.93
2019-05-01T01:08:13.821Z,24.94
2019-05-01T01:09:19.126Z,24.81
2019-05-01T01:10:23.822Z,24.67
2019-05-01T01:11:28.661Z,24.73
2019-05-01T01:12:33.649Z,24.74
2019-05-01T01:13:38.931Z,24.61
2019-05-01T01:14:43.913Z,24.59
2019-05-01T01:15:48.639Z,24.51
2019-05-01T01:16:53.408Z,24.69
2019-05-01T01:17:58.683Z,24.71
2019-05-01T01:19:03.719Z,24.84
2019-05-01T01:20:08.834Z,24.59
2019-05-01T01:21:13.829Z,24.70
2019-05-01T01:22:18.792Z,24.50
2019-05-01T01:23:24.008Z,24.61
2019-05-01T01:24:29.704Z,24.33
2019-05-01T01:25:35.108Z,24.63
2019-05-01T01:26:40.344Z,24.91
2019-05-01T01:27:45.234Z,25.48
2019-05-01T01:28:50.507Z,24.96
2019-05-01T01:29:55.756Z,24.64
2019-05-01T01:31:00.229Z,24.44
2019-05-01T01:32:05.377Z,24.47
2019-05-01T01:33:10.395Z,24.11
2019-05-01T01:34:15.676Z,24.46
2019-05-01T01:35:20.884Z,24.35
2019-05-01T01:36:25.407Z,24.41
2019-05-01T01:37:31.092Z,24.41
2019-05-01T01:38:36.118Z,24.41
2019-05-01T01:39:40.840Z,24.64
2019-05-01T01:40:45.788Z,24.35
2019-05-01T01:41:50.901Z,24.05
2019-05-01T01:42:58.808Z,24.31
2019-05-01T01:44:25.017Z,24.23
2019-05-01T01:45:40.902Z,24.34
2019-05-01T01:46:45.711Z,24.11
2019-05-01T01:48:10.277Z,24.36
2019-05-01T01:49:16.122Z,24.72
2019-05-01T01:50:21.171Z,23.94
2019-05-01T01:51:25.911Z,24.23
2019-05-01T01:52:30.945Z,24.48
2019-05-01T01:53:35.764Z,24.26
2019-05-01T01:54:40.750Z,24.54
2019-05-01T01:55:46.166Z,24.17
2019-05-01T01:56:51.144Z,24.13
2019-05-01T01:57:56.923Z,24.18
2019-05-01T01:59:02.025Z,24.22
2019-05-01T02:00:08.384Z,24.20
2019-05-01T02:01:41.924Z,24.46
2019-05-01T02:02:51.629Z,24.34
2019-05-01T02:04:00.663Z,24.18
2019-05-01T02:05:11.755Z,24.38
2019-05-01T02:06:17.286Z,24.37
2019-05-01T02:07:22.348Z,24.26
2019-05-01T02:08:27.094Z,24.25
2019-05-01T02:09:32.084Z,24.25
2019-05-01T02:10:43.026Z,24.13
2019-05-01T02:11:42.810Z,24.10
2019-05-01T02:12:48.188Z,23.96
2019-05-01T02:13:56.690Z,24.50
2019-05-01T02:15:02.013Z,24.80
2019-05-01T02:16:07.028Z,24.82
2019-05-01T02:17:12.015Z,24.77
2019-05-01T02:18:17.583Z,24.63
2019-05-01T02:19:23.192Z,24.38
2019-05-01T02:20:27.915Z,24.18
2019-05-01T02:21:32.627Z,24.43
2019-05-01T02:22:37.157Z,24.46
2019-05-01T02:23:41.610Z,24.21
2019-05-01T02:24:46.595Z,24.63
2019-05-01T02:25:51.757Z,24.87
2019-05-01T02:26:58.358Z,24.95
2019-05-01T02:28:32.347Z,24.77
2019-05-01T02:29:43.865Z,24.63
2019-05-01T02:31:07.721Z,24.65
2019-05-01T02:32:12.167Z,24.55
2019-05-01T02:33:17.264Z,24.46
2019-05-01T02:34:24.612Z,24.85
2019-05-01T02:35:31.629Z,25.05
2019-05-01T02:36:37.488Z,25.00
2019-05-01T02:37:43.369Z,24.90
2019-05-01T02:38:50.452Z,24.77
2019-05-01T02:39:57.855Z,24.59
2019-05-01T02:41:04.247Z,25.20
2019-05-01T02:42:12.057Z,25.03
2019-05-01T02:43:18.860Z,24.62
2019-05-01T02:44:32.561Z,24.83
2019-05-01T02:45:38.713Z,25.08
2019-05-01T02:46:45.951Z,25.33
2019-05-01T02:47:51.064Z,25.17
2019-05-01T02:49:05.159Z,25.25
2019-05-01T02:50:12.091Z,25.37
2019-05-01T02:51:19.398Z,25.06
2019-05-01T02:52:27.898Z,25.02
2019-05-01T02:53:34.139Z,25.09
2019-05-01T02:54:40.421Z,25.25
2019-05-01T02:55:50.394Z,25.41
2019-05-01T02:57:00.009Z,25.18
2019-05-01T02:58:04.841Z,24.95
2019-05-01T02:59:11.007Z,25.15
2019-05-01T03:00:17.008Z,24.66
2019-05-01T03:01:22.127Z,25.14
2019-05-01T03:02:29.416Z,25.20
2019-05-01T03:03:34.790Z,24.84
2019-05-01T03:04:40.861Z,25.20
2019-05-01T03:05:45.848Z,25.21
2019-05-01T03:06:51.683Z,24.99
2019-05-01T03:07:56.373Z,24.14
2019-05-01T03:09:04.145Z,24.19
2019-05-01T03:10:10.150Z,24.67
2019-05-01T03:11:15.174Z,24.83
2019-05-01T03:12:22.913Z,24.14
2019-05-01T03:13:28.209Z,24.63
2019-05-01T03:14:35.058Z,24.82
2019-05-01T03:15:40.187Z,24.76
2019-05-01T03:16:46.983Z,24.75
2019-05-01T03:18:01.466Z,25.11
2019-05-01T03:19:10.462Z,25.46
2019-05-01T03:20:50.509Z,25.65
2019-05-01T03:22:04.773Z,25.56
2019-05-01T03:23:17.469Z,26.01
2019-05-01T03:24:24.434Z,25.74
2019-05-01T03:25:29.599Z,25.89
2019-05-01T03:26:35.424Z,25.96
2019-05-01T03:27:42.051Z,25.96
2019-05-01T03:28:47.267Z,25.77
2019-05-01T03:29:51.821Z,26.13
2019-05-01T03:30:57.480Z,26.28
2019-05-01T03:32:16.692Z,25.94
2019-05-01T03:33:10.056Z,25.91
2019-05-01T03:34:15.456Z,26.02
2019-05-01T03:35:20.448Z,26.09
2019-05-01T03:36:25.248Z,25.79
2019-05-01T03:37:33.124Z,26.07
2019-05-01T03:38:38.575Z,26.39
2019-05-01T03:39:44.134Z,26.32
2019-05-01T03:40:52.312Z,26.31
2019-05-01T03:41:57.334Z,26.28
2019-05-01T03:43:02.661Z,26.16
2019-05-01T03:44:07.269Z,25.70
2019-05-01T03:45:12.016Z,25.99
2019-05-01T03:46:18.140Z,25.56
2019-05-01T03:47:23.338Z,25.86
2019-05-01T03:48:28.426Z,26.07
2019-05-01T03:49:33.510Z,26.15
2019-05-01T03:50:38.778Z,26.10
2019-05-01T03:51:43.847Z,26.07
2019-05-01T03:52:48.597Z,25.83
2019-05-01T08:55:47.195Z,26.13
2019-05-01T09:02:10.204Z,26.92
2019-05-01T09:03:29.874Z,27.16
2019-05-01T09:07:19.250Z,26.79
2019-05-01T09:11:57.581Z,26.94
2019-05-01T09:15:51.422Z,26.62
2019-05-01T09:15:57.700Z,26.94
2019-05-01T09:17:06.164Z,27.07
2019-05-01T09:18:44.207Z,26.75
2019-05-01T09:20:01.600Z,27.18
2019-05-01T09:21:14.167Z,26.89
2019-05-01T09:22:22.125Z,26.39
2019-05-01T09:23:34.417Z,26.53
2019-05-01T09:25:10.025Z,26.50
2019-05-01T09:27:05.018Z,26.42
2019-05-01T09:28:27.436Z,27.07
2019-05-01T09:29:51.558Z,26.72
2019-05-01T09:31:03.189Z,26.69
2019-05-01T09:32:11.912Z,27.08
2019-05-01T09:33:49.781Z,27.00
2019-05-01T09:35:15.102Z,27.13
2019-05-01T09:36:21.353Z,27.11
2019-05-01T09:38:04.948Z,26.85
2019-05-01T09:39:20.258Z,27.16
2019-05-01T09:40:30.187Z,27.48
2019-05-01T09:42:01.360Z,27.45
2019-05-01T09:43:23.791Z,27.67
2019-05-01T09:44:39.039Z,27.61
2019-05-01T09:45:46.642Z,27.25
2019-05-01T09:47:10.892Z,27.28
2019-05-01T09:48:22.411Z,27.38
2019-05-01T09:49:37.245Z,27.50
2019-05-01T09:50:51.291Z,27.54
2019-05-01T09:52:24.870Z,27.46
2019-05-01T09:53:56.987Z,27.56
2019-05-01T09:55:11.941Z,27.60
2019-05-01T09:56:46.059Z,27.42
2019-05-01T09:57:56.017Z,27.38
2019-05-01T09:59:25.644Z,27.17
2019-05-01T10:00:48.775Z,28.02
2019-05-01T10:02:02.957Z,27.72
2019-05-01T10:03:07.793Z,27.76
2019-05-01T10:04:25.347Z,27.66
2019-05-01T10:05:31.268Z,27.86
2019-05-01T10:06:57.218Z,28.09
2019-05-01T10:08:25.639Z,27.90
2019-05-01T10:09:52.249Z,27.71
2019-05-01T10:11:06.877Z,27.72
2019-05-01T10:12:33.391Z,27.83
2019-05-01T10:14:11.678Z,28.06
2019-05-01T10:15:42.343Z,28.33
2019-05-01T10:16:53.344Z,28.05
2019-05-01T10:17:59.949Z,27.88
2019-05-01T10:19:33.561Z,28.65
2019-05-01T10:20:40.707Z,28.25
2019-05-01T10:21:57.817Z,29.09
2019-05-01T10:23:53.197Z,28.97
2019-05-01T10:25:08.576Z,29.18
2019-05-01T10:26:32.402Z,28.59
2019-05-01T10:27:39.862Z,28.42
2019-05-01T10:28:54.750Z,28.49
2019-05-01T10:30:12.039Z,27.95
2019-05-01T10:31:21.025Z,27.25
2019-05-01T10:32:39.324Z,28.04
2019-05-01T10:33:46.291Z,28.03
2019-05-01T10:34:58.600Z,27.96
2019-05-01T10:36:31.064Z,28.03
2019-05-01T10:37:35.744Z,28.03
2019-05-01T10:38:44.970Z,28.04
2019-05-01T10:39:50.229Z,28.58
2019-05-01T10:40:54.508Z,28.93
2019-05-01T10:41:59.506Z,28.65
2019-05-01T10:43:04.700Z,28.92
2019-05-01T10:44:09.681Z,28.81
2019-05-01T10:45:14.479Z,27.80
2019-05-01T10:46:19.459Z,27.96
2019-05-01T10:47:24.191Z,28.34
2019-05-01T10:48:28.965Z,28.41
2019-05-01T10:49:33.968Z,28.41
2019-05-01T10:50:38.684Z,27.84
2019-05-01T10:51:43.665Z,27.56
2019-05-01T10:52:48.636Z,28.27
2019-05-01T10:53:53.320Z,28.32
2019-05-01T10:54:58.593Z,28.48
2019-05-01T10:56:03.588Z,28.45
2019-05-01T10:57:08.589Z,28.85
2019-05-01T10:58:18.271Z,28.96
2019-05-01T10:59:20.837Z,29.05
2019-05-01T11:00:25.482Z,29.13
2019-05-01T11:01:49.807Z,29.29
2019-05-01T11:02:54.535Z,28.61
2019-05-01T11:03:59.525Z,28.62
2019-05-01T11:05:04.218Z,28.59
2019-05-01T11:06:09.201Z,28.65
2019-05-01T11:07:14.469Z,28.93
2019-05-01T11:08:19.984Z,28.63
2019-05-01T11:09:25.179Z,28.61
2019-05-01T11:10:30.237Z,29.03
2019-05-01T11:11:35.506Z,28.93
2019-05-01T11:12:40.647Z,28.63
2019-05-01T11:13:45.621Z,29.12
2019-05-01T11:14:50.309Z,29.16
2019-05-01T11:15:55.012Z,28.97
2019-05-01T11:17:00.029Z,28.82
2019-05-01T11:18:04.851Z,28.96
2019-05-01T11:19:10.135Z,29.35
2019-05-01T11:20:15.078Z,29.47
2019-05-01T11:21:19.583Z,29.40
2019-05-01T11:22:24.866Z,29.37
2019-05-01T11:23:30.137Z,29.58
2019-05-01T11:24:35.355Z,29.93
2019-05-01T11:25:40.252Z,29.82
2019-05-01T11:26:45.303Z,30.10
2019-05-01T11:27:50.289Z,29.45
2019-05-01T11:28:55.273Z,29.39
2019-05-01T11:29:59.972Z,29.73
2019-05-01T11:31:05.816Z,30.12
2019-05-01T11:32:27.019Z,29.84
2019-05-01T11:33:57.230Z,29.95
2019-05-01T11:35:13.669Z,29.11
2019-05-01T11:36:40.216Z,29.69
2019-05-01T11:38:01.871Z,28.97
2019-05-01T11:39:30.264Z,29.57
2019-05-01T11:40:37.786Z,29.75
2019-05-01T11:41:47.370Z,29.75
2019-05-01T11:42:52.350Z,29.53
2019-05-01T11:43:57.041Z,29.42
2019-05-01T11:45:01.805Z,28.97
2019-05-01T11:46:06.795Z,29.25
2019-05-01T11:47:11.486Z,28.93
2019-05-01T11:48:16.466Z,29.39
2019-05-01T11:49:21.453Z,29.69
2019-05-01T11:50:26.170Z,29.82
2019-05-01T11:51:31.182Z,30.04
2019-05-01T11:52:36.457Z,29.71
2019-05-01T11:53:41.725Z,29.87
2019-05-01T11:54:46.694Z,29.27
2019-05-01T11:55:51.690Z,28.86
2019-05-01T11:56:57.037Z,29.84
2019-05-01T11:58:02.594Z,29.55
2019-05-01T11:59:07.893Z,29.30
2019-05-01T12:00:15.005Z,29.79
2019-05-01T12:01:21.381Z,30.06
2019-05-01T12:02:26.156Z,29.87
2019-05-01T12:03:31.158Z,29.91
2019-05-01T12:04:36.119Z,30.00
2019-05-01T12:05:40.816Z,29.84
2019-05-01T12:06:45.931Z,29.84
2019-05-01T12:07:50.725Z,30.02
2019-05-01T12:08:55.924Z,29.30
2019-05-01T12:10:00.934Z,29.53
2019-05-01T12:11:07.164Z,29.55
2019-05-01T12:12:14.266Z,29.47
2019-05-01T12:13:19.332Z,29.56
2019-05-01T12:14:24.077Z,29.70
2019-05-01T12:15:28.864Z,29.61
2019-05-01T12:16:51.219Z,30.05
2019-05-01T12:17:56.257Z,29.33
2019-05-01T12:19:01.255Z,29.43
2019-05-01T12:20:07.035Z,29.29
2019-05-01T12:21:11.485Z,29.39
2019-05-01T12:22:16.231Z,29.31
2019-05-01T12:23:20.948Z,29.33
2019-05-01T12:24:25.642Z,29.19
2019-05-01T12:25:30.191Z,29.03
2019-05-01T12:26:34.892Z,28.92
2019-05-01T12:27:39.626Z,29.05
2019-05-01T12:28:44.593Z,29.31
2019-05-01T12:29:49.333Z,28.55
2019-05-01T12:30:54.637Z,28.78
2019-05-01T12:31:59.398Z,27.56
2019-05-01T12:33:04.358Z,28.37
2019-05-01T12:34:09.111Z,28.06
2019-05-01T12:35:13.967Z,28.65
2019-05-01T12:36:18.764Z,28.86
2019-05-01T12:37:42.620Z,27.86
2019-05-01T12:38:47.590Z,28.27
2019-05-01T12:39:52.581Z,29.05
2019-05-01T12:41:15.031Z,29.05
2019-05-01T12:42:21.714Z,28.74
2019-05-01T12:43:26.684Z,28.55
2019-05-01T12:44:31.732Z,28.73
2019-05-01T12:45:37.003Z,28.71
2019-05-01T12:46:47.526Z,28.55
2019-05-01T12:47:54.169Z,28.89
2019-05-01T12:48:59.087Z,29.42
2019-05-01T12:50:03.889Z,29.39
2019-05-01T12:51:09.179Z,28.92
2019-05-01T12:52:20.712Z,28.95
2019-05-01T12:53:35.250Z,28.81
2019-05-01T12:54:54.875Z,28.97
2019-05-01T12:56:18.470Z,29.33
2019-05-01T12:57:23.534Z,29.60
2019-05-01T12:58:28.836Z,28.57
2019-05-01T12:59:33.908Z,28.49
2019-05-01T13:00:42.957Z,28.93
2019-05-01T13:01:47.927Z,28.35
2019-05-01T13:02:52.913Z,29.11
2019-05-01T13:03:57.997Z,29.27
2019-05-01T13:05:02.768Z,29.27
2019-05-01T13:06:07.754Z,29.67
2019-05-01T13:07:12.929Z,29.31
2019-05-01T13:08:17.644Z,29.21
2019-05-01T13:09:22.355Z,28.75
2019-05-01T13:10:27.473Z,28.36
2019-05-01T13:11:32.713Z,28.73
2019-05-01T13:12:37.694Z,28.89
2019-05-01T13:13:42.958Z,29.12
2019-05-01T13:14:47.993Z,29.61
2019-05-01T13:15:52.716Z,29.98
2019-05-01T13:16:57.692Z,29.89
2019-05-01T13:18:02.653Z,29.63
2019-05-01T13:19:07.679Z,29.48
2019-05-01T13:20:12.388Z,29.58
2019-05-01T13:21:17.846Z,30.46
2019-05-01T13:22:22.583Z,30.88
2019-05-01T13:23:27.996Z,30.36
2019-05-01T13:24:33.247Z,30.62
2019-05-01T13:25:38.211Z,30.62
2019-05-01T13:26:48.208Z,30.69
2019-05-01T13:27:58.094Z,30.08
2019-05-01T13:29:10.443Z,30.96
2019-05-01T13:30:25.789Z,31.66
2019-05-01T13:31:46.803Z,31.84
2019-05-01T13:32:52.910Z,31.53
2019-05-01T13:33:57.342Z,30.91
2019-05-01T13:35:02.361Z,30.74
2019-05-01T13:36:07.057Z,30.46
2019-05-01T13:37:12.023Z,31.23
2019-05-01T13:38:17.041Z,31.23
2019-05-01T13:39:22.366Z,31.19
2019-05-01T13:40:27.961Z,31.41
2019-05-01T13:41:32.749Z,30.70
2019-05-01T13:42:37.725Z,31.06
2019-05-01T13:43:42.708Z,31.52
2019-05-01T13:44:47.987Z,32.04
2019-05-01T13:45:53.549Z,32.09
2019-05-01T13:46:58.034Z,32.15
2019-05-01T13:48:03.011Z,32.15
2019-05-01T13:49:09.389Z,32.52
2019-05-01T13:50:14.342Z,30.42
2019-05-01T13:51:19.705Z,30.41
2019-05-01T13:52:24.698Z,31.07
2019-05-01T13:53:32.763Z,31.07
2019-05-01T13:54:38.041Z,32.01
2019-05-01T13:55:43.023Z,31.21
2019-05-01T13:56:48.028Z,31.21
2019-05-01T13:57:52.766Z,30.78
2019-05-01T13:58:57.605Z,31.03
2019-05-01T14:00:02.353Z,30.29
2019-05-01T14:01:07.036Z,30.38
2019-05-01T14:02:11.865Z,30.38
2019-05-01T14:03:16.837Z,30.00
2019-05-01T14:04:21.821Z,29.04
2019-05-01T14:05:27.170Z,30.07
2019-05-01T14:06:32.155Z,30.87
2019-05-01T14:07:36.927Z,30.93
2019-05-01T14:08:43.197Z,31.04
2019-05-01T14:09:47.994Z,31.28
2019-05-01T14:10:53.625Z,31.53
2019-05-01T14:11:58.718Z,31.17
2019-05-01T14:13:03.693Z,30.30
2019-05-01T14:14:08.665Z,30.73
2019-05-01T14:15:13.465Z,30.10
2019-05-01T14:16:18.470Z,29.67
2019-05-01T14:17:23.471Z,30.58
2019-05-01T14:18:28.196Z,30.98
2019-05-01T14:19:34.175Z,30.98
2019-05-01T14:20:47.155Z,29.65
2019-05-01T14:22:01.734Z,30.07
2019-05-01T14:23:19.358Z,30.07
2019-05-01T14:24:36.706Z,30.38
2019-05-01T14:25:59.150Z,29.49
2019-05-01T14:27:03.893Z,29.53
2019-05-01T14:28:08.595Z,30.18
2019-05-01T14:29:13.611Z,30.56
2019-05-01T14:30:18.343Z,30.40
2019-05-01T14:31:23.624Z,30.23
2019-05-01T14:32:28.341Z,29.68
2019-05-01T14:33:33.346Z,30.12
2019-05-01T14:34:38.337Z,29.48
2019-05-01T14:35:43.325Z,29.95
2019-05-01T14:36:47.800Z,29.68
2019-05-01T14:37:53.034Z,29.37
2019-05-01T14:38:58.024Z,29.34
2019-05-01T14:40:03.448Z,29.70
2019-05-01T14:41:08.506Z,30.26
2019-05-01T14:42:13.256Z,28.77
2019-05-01T14:43:18.243Z,29.37
2019-05-01T14:44:22.746Z,29.54
2019-05-01T14:45:28.718Z,28.71
2019-05-01T14:46:33.393Z,29.80
2019-05-01T14:47:38.403Z,30.39
2019-05-01T14:48:43.954Z,29.98
2019-05-01T14:49:48.970Z,29.63
2019-05-01T14:50:53.660Z,28.63
2019-05-01T14:51:58.662Z,29.45
2019-05-01T14:53:03.456Z,29.61
2019-05-01T14:54:08.447Z,30.04
2019-05-01T14:55:13.172Z,29.73
2019-05-01T14:56:17.973Z,29.48
2019-05-01T14:57:23.031Z,29.57
2019-05-01T14:58:28.384Z,30.03
2019-05-01T14:59:33.926Z,29.99
2019-05-01T15:00:38.644Z,29.91
2019-05-01T15:01:43.644Z,29.87
2019-05-01T15:02:48.949Z,30.16
2019-05-01T15:03:53.639Z,30.24
2019-05-01T15:04:59.229Z,29.98
2019-05-01T15:06:04.287Z,29.92
2019-05-01T15:07:11.249Z,30.21
2019-05-01T15:08:15.734Z,29.70
2019-05-01T15:09:20.414Z,30.41
2019-05-01T15:10:25.397Z,29.79
2019-05-01T15:11:30.100Z,30.09
2019-05-01T15:12:34.717Z,30.13
2019-05-01T15:13:55.388Z,30.30
2019-05-01T15:15:12.026Z,30.43
2019-05-01T15:16:36.211Z,30.65
2019-05-01T15:17:51.863Z,30.74
2019-05-01T15:19:16.026Z,29.22
2019-05-01T15:20:21.052Z,28.94
2019-05-01T15:21:26.101Z,28.61
2019-05-01T15:22:31.389Z,29.27
2019-05-01T15:23:36.945Z,29.75
2019-05-01T15:24:41.936Z,30.10
2019-05-01T15:25:46.906Z,29.54
2019-05-01T15:26:51.608Z,28.95
2019-05-01T15:27:57.127Z,29.40
2019-05-01T15:29:02.713Z,29.62
2019-05-01T15:30:08.160Z,29.64
2019-05-01T15:31:13.433Z,29.51
2019-05-01T15:32:18.728Z,28.68
2019-05-01T15:33:23.743Z,28.64
2019-05-01T15:34:28.567Z,29.08
2019-05-01T15:35:33.262Z,28.68
2019-05-01T15:36:38.254Z,29.34
2019-05-01T15:37:55.765Z,28.88
2019-05-01T15:38:50.230Z,29.51
2019-05-01T15:39:58.885Z,29.61
2019-05-01T15:41:10.458Z,29.35
2019-05-01T15:42:25.010Z,29.36
2019-05-01T15:43:31.696Z,29.37
2019-05-01T15:44:37.251Z,29.55
2019-05-01T15:45:42.202Z,29.01
2019-05-01T15:46:47.270Z,29.05
2019-05-01T15:47:52.546Z,29.12
2019-05-01T15:48:57.250Z,28.40
2019-05-01T15:50:02.265Z,28.93
2019-05-01T15:51:07.484Z,29.51
2019-05-01T15:52:12.460Z,29.74
2019-05-01T15:53:17.738Z,28.88
2019-05-01T15:54:22.973Z,29.12
2019-05-01T15:55:28.962Z,29.13
2019-05-01T15:56:33.641Z,29.32
2019-05-01T15:57:38.639Z,28.80
2019-05-01T15:58:43.628Z,29.10
2019-05-01T15:59:48.406Z,28.92
2019-05-01T16:00:53.473Z,28.26
2019-05-01T16:01:58.516Z,28.37
2019-05-01T16:03:03.820Z,27.80
2019-05-01T16:04:08.552Z,27.71
2019-05-01T16:05:13.363Z,28.09
2019-05-01T16:06:18.624Z,28.30
2019-05-01T16:07:23.337Z,28.64
2019-05-01T16:08:28.124Z,28.98
2019-05-01T16:09:32.843Z,29.08
2019-05-01T16:10:44.220Z,29.42
2019-05-01T16:12:13.745Z,29.52
2019-05-01T16:13:18.753Z,29.13
2019-05-01T16:14:23.745Z,28.44
2019-05-01T16:15:30.963Z,28.44
2019-05-01T16:16:35.707Z,28.41
2019-05-01T16:17:40.459Z,28.38
2019-05-01T16:18:45.557Z,28.98
2019-05-01T16:19:50.570Z,29.14
2019-05-01T16:20:55.020Z,29.10
2019-05-01T16:22:00.053Z,29.17
2019-05-01T16:23:04.880Z,29.22
2019-05-01T16:24:09.577Z,28.59
2019-05-01T16:25:14.399Z,28.78
2019-05-01T16:26:19.077Z,28.66
2019-05-01T16:27:24.188Z,28.90
2019-05-01T16:28:29.187Z,29.25
2019-05-01T16:29:34.175Z,28.98
2019-05-01T16:30:39.454Z,28.90
2019-05-01T16:31:44.455Z,28.82
2019-05-01T16:32:49.476Z,29.13
2019-05-01T16:33:54.765Z,29.26
2019-05-01T16:34:59.485Z,28.38
2019-05-01T16:36:04.469Z,28.34
2019-05-01T16:37:09.305Z,28.62
2019-05-01T16:38:23.008Z,28.88
2019-05-01T16:39:52.755Z,29.10
2019-05-01T16:41:02.078Z,28.81
2019-05-01T16:42:07.042Z,28.98
2019-05-01T16:43:12.859Z,28.68
2019-05-01T16:44:17.617Z,28.71
2019-05-01T16:45:22.429Z,28.33
2019-05-01T16:46:27.470Z,28.18
2019-05-01T16:47:32.725Z,27.11
2019-05-01T16:48:38.004Z,27.83
2019-05-01T16:49:42.993Z,27.80
2019-05-01T16:50:48.011Z,28.21
2019-05-01T16:51:53.346Z,28.31
2019-05-01T16:52:58.051Z,28.70
2019-05-01T16:54:03.184Z,28.31
2019-05-01T16:55:09.122Z,28.65
2019-05-01T16:56:14.165Z,28.66
2019-05-01T16:57:19.454Z,28.87
2019-05-01T16:58:25.215Z,28.99
2019-05-01T16:59:29.985Z,28.93
2019-05-01T17:00:58.529Z,28.88
2019-05-01T17:02:21.149Z,27.95
2019-05-01T17:03:31.158Z,28.29
2019-05-01T17:05:01.070Z,28.32
2019-05-01T17:06:27.418Z,28.72
2019-05-01T17:07:43.042Z,27.96
2019-05-01T17:09:00.141Z,28.70
2019-05-01T17:10:14.142Z,28.46
2019-05-01T17:11:21.022Z,28.94
2019-05-01T17:12:29.894Z,28.90
2019-05-01T17:13:35.070Z,29.06
2019-05-01T17:14:39.964Z,29.01
2019-05-01T17:15:48.476Z,29.08
2019-05-01T17:16:53.578Z,28.68
2019-05-01T17:17:58.558Z,27.97
2019-05-01T17:19:04.547Z,28.28
2019-05-01T17:20:09.373Z,28.54
2019-05-01T17:21:13.853Z,28.67
2019-05-01T17:22:18.815Z,28.86
2019-05-01T17:23:23.809Z,28.46
2019-05-01T17:24:29.055Z,28.51
2019-05-01T17:25:34.311Z,28.33
2019-05-01T17:26:39.427Z,28.51
2019-05-01T17:27:44.709Z,28.07
2019-05-01T17:28:49.941Z,27.47
2019-05-01T17:29:55.215Z,27.58
2019-05-01T17:31:01.352Z,27.36
2019-05-01T17:32:07.073Z,27.02
2019-05-01T17:33:19.527Z,27.87
2019-05-01T17:34:18.836Z,27.98
2019-05-01T17:35:23.823Z,28.35
2019-05-01T17:36:29.071Z,27.78
2019-05-01T17:37:34.343Z,27.87
2019-05-01T17:38:48.919Z,27.99
2019-05-01T17:39:45.893Z,28.21
2019-05-01T17:40:52.165Z,28.25
2019-05-01T17:41:57.606Z,28.28
2019-05-01T17:43:08.016Z,28.02
2019-05-01T17:44:10.814Z,27.68
2019-05-01T17:45:15.624Z,28.00
2019-05-01T17:46:20.105Z,27.35
2019-05-01T17:47:26.956Z,28.10
2019-05-01T17:48:33.778Z,27.86
2019-05-01T17:49:41.058Z,27.77
2019-05-01T17:50:44.594Z,28.15
2019-05-01T17:51:49.607Z,28.23
2019-05-01T17:52:54.600Z,28.37
2019-05-01T17:53:59.610Z,27.37
2019-05-01T17:55:04.183Z,27.54
2019-05-01T17:56:10.236Z,27.67
2019-05-01T17:57:16.127Z,27.74
2019-05-01T17:58:21.668Z,27.75
2019-05-01T17:59:26.710Z,27.70
2019-05-01T18:00:43.507Z,27.61
2019-05-01T18:02:16.045Z,27.54
2019-05-01T18:03:39.401Z,27.82
2019-05-01T18:05:03.559Z,27.70
2019-05-01T18:06:11.020Z,27.96
2019-05-01T18:07:16.308Z,27.84
2019-05-01T18:08:20.770Z,27.99
2019-05-01T18:09:25.482Z,28.10
2019-05-01T18:10:34.129Z,27.86
2019-05-01T18:11:36.668Z,27.98
2019-05-01T18:12:41.676Z,27.60
2019-05-01T18:13:46.404Z,27.70
2019-05-01T18:14:52.012Z,27.25
2019-05-01T18:15:56.980Z,27.60
2019-05-01T18:17:02.246Z,27.24
2019-05-01T18:18:10.706Z,27.42
2019-05-01T18:19:13.215Z,27.69
2019-05-01T18:20:18.221Z,27.97
2019-05-01T18:21:23.554Z,27.99
2019-05-01T18:22:46.214Z,27.95
2019-05-01T18:24:25.101Z,27.88
2019-05-01T18:25:40.631Z,27.83
2019-05-01T18:26:51.851Z,28.01
2019-05-01T18:28:05.753Z,27.48
2019-05-01T18:29:21.454Z,27.24
2019-05-01T18:30:31.649Z,27.22
2019-05-01T18:31:36.148Z,27.09
2019-05-01T18:32:47.552Z,27.48
2019-05-01T18:33:50.630Z,27.22
2019-05-01T18:34:55.354Z,27.60
2019-05-01T18:36:00.411Z,27.69
2019-05-01T18:37:13.743Z,27.25
2019-05-01T18:38:37.062Z,27.57
2019-05-01T18:39:42.172Z,27.56
2019-05-01T18:40:49.758Z,27.56
2019-05-01T18:41:57.881Z,27.71
2019-05-01T18:43:02.332Z,27.68
2019-05-01T18:44:10.038Z,27.84
2019-05-01T18:45:20.170Z,27.94
2019-05-01T18:46:25.779Z,27.69
2019-05-01T18:47:31.027Z,27.78
2019-05-01T18:48:35.742Z,27.56
2019-05-01T18:49:41.052Z,27.59
2019-05-01T18:50:49.512Z,27.43
2019-05-01T18:51:53.165Z,27.65
2019-05-01T18:52:58.134Z,27.54
2019-05-01T18:54:03.107Z,27.90
2019-05-01T18:55:07.810Z,27.72
2019-05-01T18:56:12.569Z,28.01
2019-05-01T18:57:17.559Z,27.82
2019-05-01T18:58:23.133Z,27.56
2019-05-01T18:59:28.480Z,27.69
2019-05-01T19:00:33.478Z,27.62
2019-05-01T19:01:37.977Z,27.27
2019-05-01T19:02:42.970Z,27.33
2019-05-01T19:03:48.283Z,27.54
2019-05-01T19:04:53.551Z,27.30
2019-05-01T19:05:58.335Z,27.39
2019-05-01T19:07:03.372Z,27.42
2019-05-01T19:08:08.109Z,27.27
2019-05-01T19:09:15.153Z,27.11
2019-05-01T19:10:19.981Z,27.14
2019-05-01T19:11:25.170Z,27.37
2019-05-01T19:12:31.363Z,27.16
2019-05-01T19:13:36.182Z,27.29
2019-05-01T19:14:41.030Z,27.02
2019-05-01T19:15:46.322Z,27.10
2019-05-01T19:16:50.819Z,26.61
2019-05-01T19:17:55.856Z,27.15
2019-05-01T19:19:00.306Z,27.07
2019-05-01T19:20:05.540Z,26.29
2019-05-01T19:21:11.435Z,27.00
2019-05-01T19:22:16.324Z,27.20
2019-05-01T19:23:22.077Z,27.25
2019-05-01T19:24:32.582Z,27.25
2019-05-01T19:25:35.455Z,27.25
2019-05-01T19:26:42.567Z,27.25
2019-05-01T19:27:47.193Z,27.30
2019-05-01T19:28:52.217Z,26.97
2019-05-01T19:29:57.989Z,27.16
2019-05-01T19:31:03.305Z,27.24
2019-05-01T19:32:08.431Z,27.12
2019-05-01T19:33:13.140Z,27.22
2019-05-01T19:34:18.151Z,27.13
2019-05-01T19:35:23.577Z,27.24
2019-05-01T19:36:29.924Z,27.20
2019-05-01T19:37:34.427Z,27.06
2019-05-01T19:38:39.988Z,27.23
2019-05-01T19:39:49.025Z,27.21
2019-05-01T19:40:50.967Z,27.04
2019-05-01T19:41:55.966Z,27.04
2019-05-01T19:43:01.037Z,26.79
2019-05-01T19:44:06.391Z,26.83
2019-05-01T19:45:11.315Z,26.77
2019-05-01T19:46:16.523Z,27.11
2019-05-01T19:47:21.283Z,26.52
2019-05-01T19:48:26.668Z,26.61
2019-05-01T19:49:31.852Z,26.85
2019-05-01T19:50:39.935Z,26.61
2019-05-01T19:51:44.214Z,26.36